createdAt,value
2018-04-30T00:00:51.053Z,17.49
2018-04-30T00:01:51.056Z,17.49
2018-04-30T00:02:51.117Z,17.49
2018-04-30T00:03:50.990Z,17.50
2018-04-30T00:04:51.057Z,17.50
2018-04-30T00:05:50.986Z,17.47
2018-04-30T00:06:51.056Z,17.43
2018-04-30T00:07:50.985Z,17.39
2018-04-30T00:08:51.064Z,17.42
2018-04-30T00:09:51.051Z,17.44
2018-04-30T00:10:51.052Z,17.49
2018-04-30T00:11:50.982Z,17.47
2018-04-30T00:12:51.051Z,17.44
2018-04-30T00:13:50.979Z,17.40
2018-04-30T00:14:51.052Z,17.36
2018-04-30T00:15:50.989Z,17.36
2018-04-30T00:16:51.004Z,17.33
2018-04-30T00:17:50.965Z,17.39
2018-04-30T00:18:50.984Z,17.43
2018-04-30T00:19:51.029Z,17.49
2018-04-30T00:20:50.979Z,17.55
2018-04-30T00:21:51.031Z,17.64
2018-04-30T00:22:51.071Z,17.62
2018-04-30T00:23:50.985Z,17.65
2018-04-30T00:24:51.065Z,17.66
2018-04-30T00:25:51.092Z,17.72
2018-04-30T00:26:51.081Z,17.76
2018-04-30T00:27:51.049Z,17.88
2018-04-30T00:28:50.994Z,17.94
2018-04-30T00:29:51.098Z,18.05
2018-04-30T00:30:51.066Z,18.12
2018-04-30T00:31:51.061Z,18.18
2018-04-30T00:32:51.060Z,18.28
2018-04-30T00:33:50.980Z,18.32
2018-04-30T00:34:51.011Z,18.35
2018-04-30T00:35:51.064Z,18.38
2018-04-30T00:36:51.071Z,18.36
2018-04-30T00:37:51.076Z,18.38
2018-04-30T00:38:51.069Z,18.44
2018-04-30T00:39:50.995Z,18.48
2018-04-30T00:40:51.108Z,18.48
2018-04-30T00:41:51.019Z,18.50
2018-04-30T00:42:51.068Z,18.51
2018-04-30T00:43:51.032Z,18.55
2018-04-30T00:44:51.070Z,18.52
2018-04-30T00:45:51.000Z,18.51
2018-04-30T00:46:51.073Z,18.51
2018-04-30T00:47:51.074Z,18.48
2018-04-30T00:48:51.005Z,18.46
2018-04-30T00:49:51.160Z,18.44
2018-04-30T00:50:51.140Z,18.41
2018-04-30T00:51:51.104Z,18.36
2018-04-30T00:52:51.055Z,18.35
2018-04-30T00:53:51.082Z,18.32
2018-04-30T00:54:51.020Z,18.32
2018-04-30T00:55:51.119Z,18.32
2018-04-30T00:56:51.084Z,18.27
2018-04-30T00:57:51.109Z,18.23
2018-04-30T00:58:51.022Z,18.21
2018-04-30T00:59:51.007Z,18.20
2018-04-30T01:00:51.114Z,18.16
2018-04-30T01:01:51.089Z,18.13
2018-04-30T01:02:51.057Z,18.16
2018-04-30T01:03:51.090Z,18.18
2018-04-30T01:04:51.028Z,18.18
2018-04-30T01:05:50.995Z,18.14
2018-04-30T01:06:51.122Z,18.13
2018-04-30T01:07:50.992Z,18.14
2018-04-30T01:08:51.118Z,18.07
2018-04-30T01:09:51.112Z,18.05
2018-04-30T01:10:50.968Z,18.02
2018-04-30T01:11:51.081Z,17.99
2018-04-30T01:12:51.085Z,17.96
2018-04-30T01:13:51.018Z,17.94
2018-04-30T01:14:51.089Z,17.91
2018-04-30T01:15:51.056Z,17.87
2018-04-30T01:16:51.020Z,17.80
2018-04-30T01:17:51.005Z,17.75
2018-04-30T01:18:51.004Z,17.79
2018-04-30T01:19:51.008Z,17.77
2018-04-30T01:20:51.074Z,17.75
2018-04-30T01:21:51.059Z,17.76
2018-04-30T01:22:51.038Z,17.76
2018-04-30T01:23:51.019Z,17.75
2018-04-30T01:24:51.127Z,17.72
2018-04-30T01:25:51.063Z,17.71
2018-04-30T01:26:51.081Z,17.68
2018-04-30T01:27:51.067Z,17.68
2018-04-30T01:28:51.137Z,17.69
2018-04-30T01:29:51.125Z,17.69
2018-04-30T01:30:51.110Z,17.71
2018-04-30T01:31:51.038Z,17.68
2018-04-30T01:32:51.113Z,17.68
2018-04-30T01:33:51.041Z,17.75
2018-04-30T01:34:51.044Z,17.87
2018-04-30T01:35:51.114Z,17.89
2018-04-30T01:36:51.113Z,17.92
2018-04-30T01:37:51.108Z,17.91
2018-04-30T01:38:51.044Z,17.89
2018-04-30T01:39:51.115Z,17.91
2018-04-30T01:40:51.136Z,17.92
2018-04-30T01:41:51.067Z,17.91
2018-04-30T01:42:51.158Z,17.94
2018-04-30T01:43:51.092Z,17.94
2018-04-30T01:44:51.016Z,17.98
2018-04-30T01:45:51.121Z,17.96
2018-04-30T01:46:51.140Z,17.95
2018-04-30T01:47:51.092Z,17.95
2018-04-30T01:48:51.163Z,17.91
2018-04-30T01:49:51.075Z,17.87
2018-04-30T01:50:51.114Z,17.83
2018-04-30T01:51:51.040Z,17.83
2018-04-30T01:52:51.115Z,17.79
2018-04-30T01:53:51.123Z,17.76
2018-04-30T01:54:51.041Z,17.73
2018-04-30T01:55:51.048Z,17.71
2018-04-30T01:56:51.119Z,17.68
2018-04-30T01:57:50.994Z,17.65
2018-04-30T01:58:51.114Z,17.65
2018-04-30T01:59:51.120Z,17.64
2018-04-30T02:00:51.089Z,17.60
2018-04-30T02:01:51.033Z,17.54
2018-04-30T02:02:51.053Z,17.44
2018-04-30T02:03:51.116Z,17.40
2018-04-30T02:04:51.123Z,17.33
2018-04-30T02:05:51.074Z,17.28
2018-04-30T02:06:51.051Z,17.24
2018-04-30T02:07:51.037Z,17.16
2018-04-30T02:08:51.077Z,17.10
2018-04-30T02:09:51.126Z,17.06
2018-04-30T02:10:51.100Z,17.05
2018-04-30T02:11:51.160Z,17.06
2018-04-30T02:12:51.131Z,17.05
2018-04-30T02:13:51.063Z,17.01
2018-04-30T02:14:51.133Z,16.98
2018-04-30T02:15:51.147Z,16.95
2018-04-30T02:16:51.092Z,16.98
2018-04-30T02:17:51.163Z,16.95
2018-04-30T02:18:51.074Z,16.95
2018-04-30T02:19:51.038Z,17.01
2018-04-30T02:20:51.113Z,17.02
2018-04-30T02:21:51.116Z,17.01
2018-04-30T02:22:51.170Z,16.99
2018-04-30T02:23:51.136Z,16.95
2018-04-30T02:24:51.067Z,16.91
2018-04-30T02:25:51.114Z,16.85
2018-04-30T02:26:51.142Z,16.83
2018-04-30T02:27:51.168Z,16.79
2018-04-30T02:28:51.114Z,16.73
2018-04-30T02:29:51.088Z,16.68
2018-04-30T02:30:51.169Z,16.63
2018-04-30T02:31:51.178Z,16.59
2018-04-30T02:32:51.145Z,16.54
2018-04-30T02:33:51.059Z,16.51
2018-04-30T02:34:51.090Z,16.50
2018-04-30T02:35:51.071Z,16.48
2018-04-30T02:36:51.114Z,16.47
2018-04-30T02:37:51.066Z,16.44
2018-04-30T02:38:51.109Z,16.41
2018-04-30T02:39:51.106Z,16.36
2018-04-30T02:40:51.130Z,16.36
2018-04-30T02:41:51.093Z,16.33
2018-04-30T02:42:51.116Z,16.33
2018-04-30T02:43:51.177Z,16.35
2018-04-30T02:44:51.155Z,16.35
2018-04-30T02:45:51.182Z,16.38
2018-04-30T02:46:51.141Z,16.39
2018-04-30T02:47:51.190Z,16.39
2018-04-30T02:48:51.187Z,16.36
2018-04-30T02:49:51.187Z,16.32
2018-04-30T02:50:51.089Z,16.31
2018-04-30T02:51:51.090Z,16.28
2018-04-30T02:52:51.166Z,16.25
2018-04-30T02:53:51.166Z,16.24
2018-04-30T02:54:51.174Z,16.22
2018-04-30T02:55:51.166Z,16.21
2018-04-30T02:56:51.094Z,16.20
2018-04-30T02:57:51.170Z,16.18
2018-04-30T02:58:51.179Z,16.16
2018-04-30T02:59:51.167Z,16.16
2018-04-30T03:00:51.191Z,16.13
2018-04-30T03:01:51.128Z,16.11
2018-04-30T03:02:51.224Z,16.11
2018-04-30T03:03:51.198Z,16.11
2018-04-30T03:04:51.145Z,16.10
2018-04-30T03:05:51.194Z,16.09
2018-04-30T03:06:51.168Z,16.09
2018-04-30T03:07:51.200Z,16.10
2018-04-30T03:08:51.233Z,16.14
2018-04-30T03:09:51.193Z,16.13
2018-04-30T03:10:51.175Z,16.10
2018-04-30T03:11:51.104Z,16.07
2018-04-30T03:12:51.105Z,16.05
2018-04-30T03:13:51.180Z,15.99
2018-04-30T03:14:51.108Z,15.95
2018-04-30T03:15:51.120Z,15.91
2018-04-30T03:16:51.179Z,15.86
2018-04-30T03:17:51.110Z,15.82
2018-04-30T03:18:51.182Z,15.76
2018-04-30T03:19:51.108Z,15.73
2018-04-30T03:20:51.183Z,15.72
2018-04-30T03:21:51.184Z,15.69
2018-04-30T03:22:51.127Z,15.66
2018-04-30T03:23:51.113Z,15.62
2018-04-30T03:24:51.183Z,15.59
2018-04-30T03:25:51.186Z,15.55
2018-04-30T03:26:51.185Z,15.54
2018-04-30T03:27:51.185Z,15.54
2018-04-30T03:28:51.116Z,15.51
2018-04-30T03:29:51.195Z,15.47
2018-04-30T03:30:51.168Z,15.43
2018-04-30T03:31:51.144Z,15.40
2018-04-30T03:32:51.211Z,15.36
2018-04-30T03:33:51.161Z,15.35
2018-04-30T03:34:51.191Z,15.33
2018-04-30T03:35:51.167Z,15.31
2018-04-30T03:36:51.196Z,15.29
2018-04-30T03:37:51.252Z,15.26
2018-04-30T03:38:51.211Z,15.24
2018-04-30T03:39:51.158Z,15.19
2018-04-30T03:40:51.177Z,15.18
2018-04-30T03:41:51.090Z,15.15
2018-04-30T03:42:51.127Z,15.14
2018-04-30T03:43:51.174Z,15.13
2018-04-30T03:44:51.132Z,15.10
2018-04-30T03:45:51.150Z,15.07
2018-04-30T03:46:51.087Z,15.06
2018-04-30T03:47:51.091Z,15.00
2018-04-30T03:48:51.183Z,14.96
2018-04-30T03:49:51.179Z,14.95
2018-04-30T03:50:51.108Z,14.96
2018-04-30T03:51:51.190Z,15.00
2018-04-30T03:52:51.103Z,15.04
2018-04-30T03:53:51.077Z,15.04
2018-04-30T03:54:51.188Z,15.04
2018-04-30T03:55:51.191Z,15.00
2018-04-30T03:56:51.224Z,14.98
2018-04-30T03:57:51.182Z,14.98
2018-04-30T03:58:51.147Z,14.95
2018-04-30T03:59:51.140Z,14.91
2018-04-30T04:00:51.214Z,14.84
2018-04-30T04:01:51.220Z,14.80
2018-04-30T04:02:51.133Z,14.75
2018-04-30T04:03:51.213Z,14.71
2018-04-30T04:04:51.210Z,14.66
2018-04-30T04:05:51.138Z,14.62
2018-04-30T04:06:51.140Z,14.64
2018-04-30T04:07:51.141Z,14.61
2018-04-30T04:08:51.211Z,14.58
2018-04-30T04:09:51.142Z,14.57
2018-04-30T04:10:51.142Z,14.57
2018-04-30T04:11:51.178Z,14.54
2018-04-30T04:12:51.129Z,14.51
2018-04-30T04:13:51.209Z,14.49
2018-04-30T04:14:51.210Z,14.44
2018-04-30T04:15:51.234Z,14.42
2018-04-30T04:16:51.176Z,14.40
2018-04-30T04:17:51.194Z,14.39
2018-04-30T04:18:51.136Z,14.40
2018-04-30T04:19:51.181Z,14.46
2018-04-30T04:20:51.243Z,14.54
2018-04-30T04:21:51.212Z,14.57
2018-04-30T04:22:51.188Z,14.60
2018-04-30T04:23:51.154Z,14.62
2018-04-30T04:24:51.271Z,14.65
2018-04-30T04:25:51.176Z,14.73
2018-04-30T04:26:51.233Z,14.82
2018-04-30T04:27:51.124Z,14.91
2018-04-30T04:28:51.254Z,15.06
2018-04-30T04:29:51.138Z,15.19
2018-04-30T04:30:51.123Z,15.35
2018-04-30T04:31:51.217Z,15.48
2018-04-30T04:32:51.219Z,15.61
2018-04-30T04:33:51.197Z,15.66
2018-04-30T04:34:51.248Z,15.70
2018-04-30T04:35:51.262Z,15.72
2018-04-30T04:36:51.254Z,15.82
2018-04-30T04:37:51.256Z,15.87
2018-04-30T04:38:51.180Z,15.90
2018-04-30T04:39:51.194Z,15.91
2018-04-30T04:40:51.194Z,15.91
2018-04-30T04:41:51.253Z,15.94
2018-04-30T04:42:51.261Z,15.94
2018-04-30T04:43:51.206Z,15.95
2018-04-30T04:44:51.147Z,15.97
2018-04-30T04:45:51.307Z,15.94
2018-04-30T04:46:51.192Z,15.95
2018-04-30T04:47:51.254Z,15.95
2018-04-30T04:48:51.230Z,15.95
2018-04-30T04:49:51.273Z,15.94
2018-04-30T04:50:51.208Z,15.95
2018-04-30T04:51:51.194Z,15.94
2018-04-30T04:52:51.264Z,15.97
2018-04-30T04:53:51.203Z,15.97
2018-04-30T04:54:51.230Z,15.99
2018-04-30T04:55:51.277Z,16.00
2018-04-30T04:56:51.211Z,16.03
2018-04-30T04:57:51.205Z,16.06
2018-04-30T04:58:51.210Z,16.07
2018-04-30T04:59:51.196Z,16.11
2018-04-30T05:00:51.239Z,16.16
2018-04-30T05:01:51.217Z,16.18
2018-04-30T05:02:51.196Z,16.22
2018-04-30T05:03:51.209Z,16.27
2018-04-30T05:04:51.269Z,16.31
2018-04-30T05:05:51.179Z,16.35
2018-04-30T05:06:51.147Z,16.38
2018-04-30T05:07:51.303Z,16.44
2018-04-30T05:08:51.205Z,16.50
2018-04-30T05:09:51.163Z,16.55
2018-04-30T05:10:51.314Z,16.59
2018-04-30T05:11:51.245Z,16.62
2018-04-30T05:12:51.146Z,16.66
2018-04-30T05:13:51.247Z,16.72
2018-04-30T05:14:51.269Z,16.76
2018-04-30T05:15:51.243Z,16.79
2018-04-30T05:16:51.275Z,16.80
2018-04-30T05:17:51.250Z,16.84
2018-04-30T05:18:51.279Z,16.87
2018-04-30T05:19:51.267Z,16.91
2018-04-30T05:20:51.178Z,16.95
2018-04-30T05:21:51.244Z,16.95
2018-04-30T05:22:51.278Z,16.97
2018-04-30T05:23:51.171Z,16.99
2018-04-30T05:24:51.218Z,17.01
2018-04-30T05:25:51.230Z,17.01
2018-04-30T05:26:51.229Z,17.05
2018-04-30T05:27:51.333Z,17.06
2018-04-30T05:28:51.227Z,17.10
2018-04-30T05:29:51.236Z,17.10
2018-04-30T05:30:51.220Z,17.13
2018-04-30T05:31:51.235Z,17.16
2018-04-30T05:32:51.230Z,17.21
2018-04-30T05:33:51.294Z,17.22
2018-04-30T05:34:51.182Z,17.24
2018-04-30T05:35:51.195Z,17.25
2018-04-30T05:36:51.164Z,17.28
2018-04-30T05:37:51.182Z,17.32
2018-04-30T05:38:51.243Z,17.33
2018-04-30T05:39:51.230Z,17.39
2018-04-30T05:40:51.265Z,17.43
2018-04-30T05:41:51.197Z,17.43
2018-04-30T05:42:51.200Z,17.50
2018-04-30T05:43:51.204Z,17.50
2018-04-30T05:44:51.223Z,17.51
2018-04-30T05:45:51.270Z,17.53
2018-04-30T05:46:51.198Z,17.53
2018-04-30T05:47:51.202Z,17.57
2018-04-30T05:48:51.269Z,17.61
2018-04-30T05:49:51.209Z,17.57
2018-04-30T05:50:51.264Z,17.55
2018-04-30T05:51:51.236Z,17.53
2018-04-30T05:52:51.307Z,17.53
2018-04-30T05:53:51.241Z,17.46
2018-04-30T05:54:51.214Z,17.39
2018-04-30T05:55:51.247Z,17.33
2018-04-30T05:56:51.294Z,17.25
2018-04-30T05:57:51.273Z,17.24
2018-04-30T05:58:51.344Z,17.25
2018-04-30T05:59:51.244Z,17.28
2018-04-30T06:00:51.278Z,17.32
2018-04-30T06:01:51.210Z,17.39
2018-04-30T06:02:51.282Z,17.39
2018-04-30T06:03:51.210Z,17.36
2018-04-30T06:04:51.210Z,17.40
2018-04-30T06:05:51.280Z,17.44
2018-04-30T06:06:51.233Z,17.44
2018-04-30T06:07:51.280Z,17.46
2018-04-30T06:08:51.210Z,17.47
2018-04-30T06:09:51.285Z,17.47
2018-04-30T06:10:51.271Z,17.47
2018-04-30T06:11:51.223Z,17.54
2018-04-30T06:12:51.255Z,17.51
2018-04-30T06:13:51.265Z,17.46
2018-04-30T06:14:51.187Z,17.39
2018-04-30T06:15:51.245Z,17.35
2018-04-30T06:16:51.188Z,17.32
2018-04-30T06:17:51.226Z,17.25
2018-04-30T06:18:51.186Z,17.20
2018-04-30T06:19:51.270Z,17.16
2018-04-30T06:20:51.288Z,17.12
2018-04-30T06:21:51.292Z,17.02
2018-04-30T06:22:51.311Z,16.94
2018-04-30T06:23:51.318Z,16.90
2018-04-30T06:24:51.291Z,16.81
2018-04-30T06:25:51.229Z,16.79
2018-04-30T06:26:51.332Z,16.73
2018-04-30T06:27:51.223Z,16.66
2018-04-30T06:28:51.232Z,16.65
2018-04-30T06:29:51.175Z,16.61
2018-04-30T06:30:51.317Z,16.61
2018-04-30T06:31:51.336Z,16.57
2018-04-30T06:32:51.323Z,16.51
2018-04-30T06:33:51.277Z,16.43
2018-04-30T06:34:51.275Z,16.38
2018-04-30T06:35:51.360Z,16.36
2018-04-30T06:36:51.317Z,16.32
2018-04-30T06:37:51.278Z,16.27
2018-04-30T06:38:51.280Z,16.22
2018-04-30T06:39:51.224Z,16.17
2018-04-30T06:40:51.328Z,16.14
2018-04-30T06:41:51.263Z,16.10
2018-04-30T06:42:51.273Z,16.06
2018-04-30T06:43:51.266Z,16.00
2018-04-30T06:44:51.275Z,15.97
2018-04-30T06:45:51.271Z,15.91
2018-04-30T06:46:51.282Z,15.87
2018-04-30T06:47:51.212Z,15.84
2018-04-30T06:48:51.326Z,15.82
2018-04-30T06:49:51.341Z,15.82
2018-04-30T06:50:51.301Z,15.79
2018-04-30T06:51:51.309Z,15.76
2018-04-30T06:52:51.311Z,15.75
2018-04-30T06:53:51.229Z,15.73
2018-04-30T06:54:51.327Z,15.73
2018-04-30T06:55:51.272Z,15.73
2018-04-30T06:56:51.282Z,15.73
2018-04-30T06:57:51.218Z,15.75
2018-04-30T06:58:51.237Z,15.72
2018-04-30T06:59:51.291Z,15.69
2018-04-30T07:00:51.283Z,15.69
2018-04-30T07:01:51.315Z,15.72
2018-04-30T07:02:51.316Z,15.70
2018-04-30T07:03:51.216Z,15.70
2018-04-30T07:04:51.355Z,15.70
2018-04-30T07:05:51.239Z,15.73
2018-04-30T07:06:51.300Z,15.73
2018-04-30T07:07:51.296Z,15.76
2018-04-30T07:08:51.281Z,15.77
2018-04-30T07:09:51.380Z,15.80
2018-04-30T07:10:51.299Z,15.80
2018-04-30T07:11:51.323Z,15.82
2018-04-30T07:12:51.254Z,15.83
2018-04-30T07:13:51.336Z,15.83
2018-04-30T07:14:51.258Z,15.84
2018-04-30T07:15:51.329Z,15.83
2018-04-30T07:16:51.255Z,15.87
2018-04-30T07:17:51.327Z,15.90
2018-04-30T07:18:51.258Z,15.90
2018-04-30T07:19:51.325Z,15.91
2018-04-30T07:20:51.259Z,15.91
2018-04-30T07:21:51.332Z,15.94
2018-04-30T07:22:51.336Z,15.99
2018-04-30T07:23:51.273Z,16.07
2018-04-30T07:24:51.328Z,16.11
2018-04-30T07:25:51.262Z,16.14
2018-04-30T07:26:51.266Z,16.18
2018-04-30T07:27:51.378Z,16.20
2018-04-30T07:28:51.268Z,16.22
2018-04-30T07:29:51.347Z,16.28
2018-04-30T07:30:51.267Z,16.33
2018-04-30T07:31:51.267Z,16.39
2018-04-30T07:32:51.264Z,16.43
2018-04-30T07:33:51.336Z,16.47
2018-04-30T07:34:51.338Z,16.52
2018-04-30T07:35:51.272Z,16.58
2018-04-30T07:36:51.337Z,16.63
2018-04-30T07:37:51.274Z,16.69
2018-04-30T07:38:51.340Z,16.77
2018-04-30T07:39:51.343Z,16.84
2018-04-30T07:40:51.273Z,16.87
2018-04-30T07:41:51.197Z,16.90
2018-04-30T07:42:51.293Z,16.72
2018-04-30T07:43:51.291Z,16.63
2018-04-30T07:44:51.278Z,16.63
2018-04-30T07:45:51.251Z,16.73
2018-04-30T07:46:51.254Z,16.85
2018-04-30T07:47:51.243Z,16.95
2018-04-30T07:48:51.300Z,17.06
2018-04-30T07:49:51.294Z,17.10
2018-04-30T07:50:51.247Z,17.10
2018-04-30T07:51:51.308Z,16.99
2018-04-30T07:52:51.280Z,16.88
2018-04-30T07:53:51.279Z,16.84
2018-04-30T07:54:51.370Z,16.81
2018-04-30T07:55:51.281Z,16.81
2018-04-30T07:56:51.351Z,16.88
2018-04-30T07:57:51.350Z,16.88
2018-04-30T07:58:51.315Z,16.91
2018-04-30T07:59:51.296Z,16.87
2018-04-30T08:00:51.283Z,16.80
2018-04-30T08:01:51.253Z,16.77
2018-04-30T08:02:51.321Z,16.77
2018-04-30T08:03:51.375Z,16.76
2018-04-30T08:04:51.358Z,16.68
2018-04-30T08:05:51.353Z,16.69
2018-04-30T08:06:51.393Z,16.76
2018-04-30T08:07:51.377Z,16.84
2018-04-30T08:08:51.329Z,16.81
2018-04-30T08:09:51.388Z,16.79
2018-04-30T08:10:51.386Z,16.73
2018-04-30T08:11:51.346Z,16.65
2018-04-30T08:12:51.377Z,16.54
2018-04-30T08:13:51.323Z,16.47
2018-04-30T08:14:51.496Z,16.41
2018-04-30T08:15:51.365Z,16.47
2018-04-30T08:16:51.383Z,16.50
2018-04-30T08:17:51.265Z,16.46
2018-04-30T08:18:51.335Z,16.38
2018-04-30T08:19:51.395Z,16.36
2018-04-30T08:20:51.264Z,16.39
2018-04-30T08:21:51.291Z,16.44
2018-04-30T08:22:51.405Z,16.41
2018-04-30T08:23:51.409Z,16.43
2018-04-30T08:24:51.404Z,16.38
2018-04-30T08:25:51.328Z,16.39
2018-04-30T08:26:51.409Z,16.41
2018-04-30T08:27:51.403Z,16.39
2018-04-30T08:28:51.333Z,16.39
2018-04-30T08:29:51.350Z,16.43
2018-04-30T08:30:51.268Z,16.39
2018-04-30T08:31:51.312Z,16.33
2018-04-30T08:32:51.238Z,16.32
2018-04-30T08:33:51.257Z,16.28
2018-04-30T08:34:51.280Z,16.28
2018-04-30T08:35:51.280Z,16.35
2018-04-30T08:36:51.358Z,16.41
2018-04-30T08:37:51.239Z,16.47
2018-04-30T08:38:51.279Z,16.55
2018-04-30T08:39:51.327Z,16.65
2018-04-30T08:40:51.264Z,16.73
2018-04-30T08:41:51.380Z,16.77
2018-04-30T08:42:51.352Z,16.84
2018-04-30T08:43:51.413Z,16.83
2018-04-30T08:44:51.453Z,16.85
2018-04-30T08:45:51.344Z,16.98
2018-04-30T08:46:51.411Z,16.98
2018-04-30T08:47:51.384Z,16.92
2018-04-30T08:48:51.362Z,16.97
2018-04-30T08:49:51.296Z,16.99
2018-04-30T08:50:51.380Z,16.94
2018-04-30T08:51:51.271Z,16.98
2018-04-30T08:52:51.258Z,16.90
2018-04-30T08:53:51.323Z,16.80
2018-04-30T08:54:51.370Z,16.63
2018-04-30T08:55:51.390Z,16.50
2018-04-30T08:56:51.369Z,16.44
2018-04-30T08:57:51.344Z,16.47
2018-04-30T08:58:51.312Z,16.38
2018-04-30T08:59:51.377Z,16.35
2018-04-30T09:00:51.327Z,16.31
2018-04-30T09:01:51.336Z,16.16
2018-04-30T09:02:51.387Z,16.06
2018-04-30T09:03:51.346Z,15.95
2018-04-30T09:04:51.348Z,15.95
2018-04-30T09:05:51.264Z,15.90
2018-04-30T09:06:51.285Z,15.88
2018-04-30T09:07:51.394Z,15.82
2018-04-30T09:08:51.263Z,15.69
2018-04-30T09:09:51.389Z,15.57
2018-04-30T09:10:51.395Z,15.50
2018-04-30T09:11:51.332Z,15.47
2018-04-30T09:12:51.335Z,15.48
2018-04-30T09:13:51.331Z,15.53
2018-04-30T09:14:51.417Z,15.51
2018-04-30T09:15:51.334Z,15.57
2018-04-30T09:16:51.346Z,15.58
2018-04-30T09:17:51.405Z,15.51
2018-04-30T09:18:51.344Z,15.53
2018-04-30T09:19:51.403Z,15.57
2018-04-30T09:20:51.333Z,15.57
2018-04-30T09:21:51.371Z,15.58
2018-04-30T09:22:51.399Z,15.51
2018-04-30T09:23:51.425Z,15.51
2018-04-30T09:24:51.442Z,15.48
2018-04-30T09:25:51.327Z,15.47
2018-04-30T09:26:51.445Z,15.48
2018-04-30T09:27:51.405Z,15.51
2018-04-30T09:28:51.315Z,15.50
2018-04-30T09:29:51.320Z,15.47
2018-04-30T09:30:51.317Z,15.48
2018-04-30T09:31:51.406Z,15.44
2018-04-30T09:32:51.315Z,15.42
2018-04-30T09:33:51.409Z,15.39
2018-04-30T09:34:51.401Z,15.40
2018-04-30T09:35:51.321Z,15.37
2018-04-30T09:36:51.408Z,15.43
2018-04-30T09:37:51.401Z,15.44
2018-04-30T09:38:51.334Z,15.50
2018-04-30T09:39:51.343Z,15.51
2018-04-30T09:40:51.335Z,15.50
2018-04-30T09:41:51.412Z,15.51
2018-04-30T09:42:51.317Z,15.55
2018-04-30T09:43:51.323Z,15.61
2018-04-30T09:44:51.286Z,15.61
2018-04-30T09:45:51.288Z,15.61
2018-04-30T09:46:51.325Z,15.65
2018-04-30T09:47:51.327Z,15.61
2018-04-30T09:48:51.409Z,15.57
2018-04-30T09:49:51.423Z,15.54
2018-04-30T09:50:51.417Z,15.58
2018-04-30T09:51:51.423Z,15.58
2018-04-30T09:52:51.425Z,15.61
2018-04-30T09:53:51.328Z,15.64
2018-04-30T09:54:51.465Z,15.59
2018-04-30T09:55:51.460Z,15.59
2018-04-30T09:56:51.392Z,15.64
2018-04-30T09:57:51.369Z,15.58
2018-04-30T09:58:51.396Z,15.55
2018-04-30T09:59:51.467Z,15.51
2018-04-30T10:00:51.399Z,15.48
2018-04-30T10:01:51.394Z,15.44
2018-04-30T10:02:51.431Z,15.37
2018-04-30T10:03:51.338Z,15.37
2018-04-30T10:04:51.431Z,15.37
2018-04-30T10:05:51.338Z,15.40
2018-04-30T10:06:51.433Z,15.37
2018-04-30T10:07:51.458Z,15.46
2018-04-30T10:08:51.347Z,15.50
2018-04-30T10:09:51.458Z,15.54
2018-04-30T10:10:51.346Z,15.54
2018-04-30T10:11:51.396Z,15.54
2018-04-30T10:12:51.336Z,15.68
2018-04-30T10:13:51.360Z,15.76
2018-04-30T10:14:51.402Z,15.77
2018-04-30T10:15:51.505Z,15.80
2018-04-30T10:16:51.442Z,15.86
2018-04-30T10:17:51.503Z,15.86
2018-04-30T10:18:51.440Z,15.82
2018-04-30T10:19:51.443Z,15.73
2018-04-30T10:20:51.466Z,15.70
2018-04-30T10:21:51.406Z,15.62
2018-04-30T10:22:51.465Z,15.54
2018-04-30T10:23:51.474Z,15.55
2018-04-30T10:24:51.346Z,15.50
2018-04-30T10:25:51.368Z,15.47
2018-04-30T10:26:51.421Z,15.47
2018-04-30T10:27:51.476Z,15.43
2018-04-30T10:28:51.477Z,15.40
2018-04-30T10:29:51.443Z,15.40
2018-04-30T10:30:51.448Z,15.42
2018-04-30T10:31:51.434Z,15.40
2018-04-30T10:32:51.432Z,15.37
2018-04-30T10:33:51.371Z,15.39
2018-04-30T10:34:51.371Z,15.35
2018-04-30T10:35:51.483Z,15.39
2018-04-30T10:36:51.491Z,15.32
2018-04-30T10:37:51.551Z,15.33
2018-04-30T10:38:51.421Z,15.46
2018-04-30T10:39:51.428Z,15.48
2018-04-30T10:40:51.424Z,15.47
2018-04-30T10:41:51.364Z,15.48
2018-04-30T10:42:51.455Z,15.53
2018-04-30T10:43:51.498Z,15.58
2018-04-30T10:44:51.477Z,15.64
2018-04-30T10:45:51.475Z,15.57
2018-04-30T10:46:51.401Z,15.61
2018-04-30T10:47:51.381Z,15.58
2018-04-30T10:48:51.493Z,15.65
2018-04-30T10:49:51.465Z,15.72
2018-04-30T10:50:51.460Z,15.77
2018-04-30T10:51:51.465Z,15.73
2018-04-30T10:52:51.487Z,15.77
2018-04-30T10:53:51.465Z,15.82
2018-04-30T10:54:51.434Z,15.86
2018-04-30T10:55:51.489Z,16.00
2018-04-30T10:56:51.498Z,16.11
2018-04-30T10:57:51.502Z,16.21
2018-04-30T10:58:51.500Z,16.16
2018-04-30T10:59:51.407Z,16.28
2018-04-30T11:00:51.478Z,16.43
2018-04-30T11:01:51.417Z,16.48
2018-04-30T11:02:51.470Z,16.54
2018-04-30T11:03:51.375Z,16.61
2018-04-30T11:04:51.466Z,16.83
2018-04-30T11:05:51.378Z,16.88
2018-04-30T11:06:51.461Z,16.87
2018-04-30T11:07:51.465Z,16.81
2018-04-30T11:08:51.467Z,16.66
2018-04-30T11:09:51.462Z,16.58
2018-04-30T11:10:51.361Z,16.50
2018-04-30T11:11:51.407Z,16.58
2018-04-30T11:12:51.475Z,16.55
2018-04-30T11:13:51.412Z,16.50
2018-04-30T11:14:51.412Z,16.66
2018-04-30T11:15:51.484Z,16.80
2018-04-30T11:16:51.415Z,16.70
2018-04-30T11:17:51.482Z,16.70
2018-04-30T11:18:51.477Z,16.62
2018-04-30T11:19:51.483Z,16.48
2018-04-30T11:20:51.468Z,16.33
2018-04-30T11:21:51.414Z,16.48
2018-04-30T11:22:51.417Z,16.72
2018-04-30T11:23:51.480Z,16.87
2018-04-30T11:24:51.482Z,16.91
2018-04-30T11:25:51.414Z,16.92
2018-04-30T11:26:51.482Z,16.99
2018-04-30T11:27:51.454Z,16.91
2018-04-30T11:28:51.422Z,16.76
2018-04-30T11:29:51.421Z,16.66
2018-04-30T11:30:51.421Z,16.59
2018-04-30T11:31:51.481Z,16.58
2018-04-30T11:32:51.487Z,16.58
2018-04-30T11:33:51.516Z,16.43
2018-04-30T11:34:51.398Z,16.24
2018-04-30T11:35:51.459Z,16.17
2018-04-30T11:36:51.538Z,16.11
2018-04-30T11:37:51.469Z,15.97
2018-04-30T11:38:51.527Z,15.93
2018-04-30T11:39:51.494Z,15.97
2018-04-30T11:40:51.460Z,16.00
2018-04-30T11:41:51.425Z,16.03
2018-04-30T11:42:51.422Z,16.03
2018-04-30T11:43:51.499Z,16.02
2018-04-30T11:44:51.431Z,16.00
2018-04-30T11:45:51.498Z,16.09
2018-04-30T11:46:51.431Z,16.22
2018-04-30T11:47:51.500Z,16.33
2018-04-30T11:48:51.498Z,16.47
2018-04-30T11:49:51.429Z,16.51
2018-04-30T11:50:51.500Z,16.51
2018-04-30T11:51:51.433Z,16.47
2018-04-30T11:52:51.474Z,16.41
2018-04-30T11:53:51.482Z,16.31
2018-04-30T11:54:51.385Z,16.17
2018-04-30T11:55:51.453Z,16.18
2018-04-30T11:56:51.478Z,16.20
2018-04-30T11:57:51.430Z,16.24
2018-04-30T11:58:51.366Z,16.33
2018-04-30T11:59:51.401Z,16.47
2018-04-30T12:00:51.518Z,16.50
2018-04-30T12:01:51.442Z,16.46
2018-04-30T12:02:51.465Z,16.51
2018-04-30T12:03:51.448Z,16.61
2018-04-30T12:04:51.515Z,16.74
2018-04-30T12:05:51.534Z,16.80
2018-04-30T12:06:51.540Z,16.91
2018-04-30T12:07:51.413Z,16.97
2018-04-30T12:08:51.554Z,17.05
2018-04-30T12:09:51.538Z,17.21
2018-04-30T12:10:51.434Z,17.35
2018-04-30T12:11:51.497Z,17.57
2018-04-30T12:12:51.468Z,17.50
2018-04-30T12:13:51.399Z,17.49
2018-04-30T12:14:51.381Z,17.36
2018-04-30T12:15:51.400Z,17.28
2018-04-30T12:16:51.500Z,17.21
2018-04-30T12:17:51.452Z,17.21
2018-04-30T12:18:51.420Z,17.25
2018-04-30T12:19:51.519Z,17.21
2018-04-30T12:20:51.427Z,17.24
2018-04-30T12:21:51.500Z,17.29
2018-04-30T12:22:51.480Z,17.28
2018-04-30T12:23:51.538Z,17.31
2018-04-30T12:24:51.530Z,17.29
2018-04-30T12:25:51.538Z,17.35
2018-04-30T12:26:51.553Z,17.36
2018-04-30T12:27:51.500Z,17.35
2018-04-30T12:28:51.424Z,17.39
2018-04-30T12:29:51.627Z,17.46
2018-04-30T12:30:51.488Z,17.58
2018-04-30T12:31:51.555Z,17.87
2018-04-30T12:32:51.493Z,18.25
2018-04-30T12:33:51.504Z,18.46
2018-04-30T12:34:51.550Z,18.83
2018-04-30T12:35:51.493Z,18.81
2018-04-30T12:36:51.471Z,18.77
2018-04-30T12:37:51.457Z,18.57
2018-04-30T12:39:51.504Z,18.21
2018-04-30T12:40:51.553Z,18.28
2018-04-30T12:41:51.554Z,18.46
2018-04-30T12:42:51.567Z,18.32
2018-04-30T12:43:51.558Z,18.41
2018-04-30T12:44:51.561Z,18.44
2018-04-30T12:45:51.549Z,18.10
2018-04-30T12:46:51.554Z,17.87
2018-04-30T12:47:51.569Z,17.83
2018-04-30T12:48:51.461Z,17.96
2018-04-30T12:49:51.683Z,18.13
2018-04-30T12:50:51.585Z,18.18
2018-04-30T12:51:51.470Z,18.06
2018-04-30T12:52:51.495Z,18.32
2018-04-30T12:53:51.460Z,18.58